Time;durP1;ratioP1;P1;durP2;ratioP2;P2;SDS_P1;SDS_P2;PMS_P1;PMS_P2;Temp;Humidity;BMP_temperature;BMP_pressure;BME280_temperature;BME280_humidity;BME280_pressure;Samples;Min_cycle;Max_cycle;Signal;HPM_P1;HPM_P2
2022/07/13 00:00:56;;;;;;;5.88;4.30;;;;;;;;;;5041413;28;20294;-64
2022/07/13 00:03:22;;;;;;;5.65;4.30;;;;;;;;;;5042042;28;21176;-64
2022/07/13 00:05:47;;;;;;;8.60;3.90;;;;;;;;;;5045531;28;20238;-64
2022/07/13 00:08:12;;;;;;;4.80;4.03;;;;;;;;;;5045369;28;20222;-65
2022/07/13 00:10:38;;;;;;;4.95;4.00;;;;;;;;;;5044766;28;20360;-65
2022/07/13 00:13:03;;;;;;;5.20;4.45;;;;;;;;;;5044597;28;20296;-65
2022/07/13 00:15:28;;;;;;;5.97;4.47;;;;;;;;;;5033549;28;20204;-64
2022/07/13 00:17:54;;;;;;;7.72;4.97;;;;;;;;;;5034418;28;20312;-64
2022/07/13 00:20:19;;;;;;;9.45;4.45;;;;;;;;;;5025217;28;20653;-64
2022/07/13 00:22:44;;;;;;;6.53;4.43;;;;;;;;;;5025289;28;20220;-64
2022/07/13 00:25:09;;;;;;;5.78;4.50;;;;;;;;;;5024696;28;20215;-64
2022/07/13 00:27:35;;;;;;;8.15;4.00;;;;;;;;;;5025579;28;20211;-64
2022/07/13 00:30:00;;;;;;;5.63;4.35;;;;;;;;;;5024732;28;20215;-64
2022/07/13 00:32:25;;;;;;;8.18;4.72;;;;;;;;;;5024982;28;20211;-64
2022/07/13 00:34:51;;;;;;;7.03;4.32;;;;;;;;;;5025194;28;20207;-64
2022/07/13 00:37:16;;;;;;;7.32;4.18;;;;;;;;;;5024004;28;20232;-64
2022/07/13 00:39:41;;;;;;;6.40;4.25;;;;;;;;;;5025497;28;20365;-64
2022/07/13 00:42:06;;;;;;;6.32;4.38;;;;;;;;;;5043768;28;20596;-65
2022/07/13 00:44:32;;;;;;;7.30;4.10;;;;;;;;;;5044291;28;20207;-64
2022/07/13 00:46:57;;;;;;;6.78;4.38;;;;;;;;;;5044480;28;20203;-64
2022/07/13 00:49:22;;;;;;;7.72;4.65;;;;;;;;;;5044439;28;20218;-64
2022/07/13 00:51:48;;;;;;;8.43;4.38;;;;;;;;;;5044046;28;20206;-64
2022/07/13 00:54:14;;;;;;;5.85;4.60;;;;;;;;;;5043772;28;20721;-64
2022/07/13 00:56:39;;;;;;;7.03;4.75;;;;;;;;;;5045127;28;20301;-64
2022/07/13 00:59:04;;;;;;;6.70;4.75;;;;;;;;;;5025306;28;20219;-64
2022/07/13 01:01:30;;;;;;;5.65;4.53;;;;;;;;;;5044955;28;20203;-64
2022/07/13 01:03:55;;;;;;;6.78;4.88;;;;;;;;;;5044129;28;20242;-64
2022/07/13 01:06:21;;;;;;;6.00;4.28;;;;;;;;;;5043415;28;20662;-64
2022/07/13 01:08:46;;;;;;;7.68;4.50;;;;;;;;;;5044362;28;20247;-64
2022/07/13 01:11:12;;;;;;;5.90;4.57;;;;;;;;;;5043878;28;20215;-64
2022/07/13 01:13:37;;;;;;;6.32;4.55;;;;;;;;;;5043584;28;20260;-64
2022/07/13 01:16:02;;;;;;;6.75;5.13;;;;;;;;;;5024761;28;20211;-64
2022/07/13 01:18:28;;;;;;;5.32;4.60;;;;;;;;;;5029619;28;20342;-64
2022/07/13 01:20:53;;;;;;;5.10;4.53;;;;;;;;;;5024897;28;20672;-64
2022/07/13 01:23:18;;;;;;;5.63;4.90;;;;;;;;;;5043741;28;20207;-64
2022/07/13 01:25:44;;;;;;;5.50;4.90;;;;;;;;;;5043976;28;20678;-64
2022/07/13 01:28:09;;;;;;;6.22;5.18;;;;;;;;;;5043134;28;20260;-64
2022/07/13 01:30:34;;;;;;;6.40;5.35;;;;;;;;;;5025441;28;20317;-64
2022/07/13 01:33:00;;;;;;;7.68;6.00;;;;;;;;;;5044281;28;20268;-64
2022/07/13 01:35:25;;;;;;;6.22;5.25;;;;;;;;;;5042458;28;20325;-64
2022/07/13 01:37:51;;;;;;;7.07;5.65;;;;;;;;;;5043952;28;20222;-64
2022/07/13 01:40:16;;;;;;;5.72;4.95;;;;;;;;;;5042218;28;20211;-64
2022/07/13 01:42:44;;;;;;;6.25;5.03;;;;;;;;;;5044300;28;20218;-64
2022/07/13 01:45:09;;;;;;;6.90;5.35;;;;;;;;;;5043438;28;20301;-64
2022/07/13 01:47:36;;;;;;;6.57;4.90;;;;;;;;;;5042772;28;20993;-64
2022/07/13 01:50:02;;;;;;;7.43;5.45;;;;;;;;;;5043371;28;20211;-64
2022/07/13 01:52:27;;;;;;;6.28;4.82;;;;;;;;;;5043409;28;20615;-64
2022/07/13 01:54:52;;;;;;;7.68;4.90;;;;;;;;;;5042815;28;20321;-64
2022/07/13 01:57:17;;;;;;;6.35;5.03;;;;;;;;;;5042873;28;20246;-63
2022/07/13 01:59:43;;;;;;;5.82;5.00;;;;;;;;;;5043521;28;20611;-63
2022/07/13 02:02:08;;;;;;;5.95;5.18;;;;;;;;;;5042213;28;20222;-63
2022/07/13 02:04:33;;;;;;;7.38;5.07;;;;;;;;;;5043557;28;20227;-63
2022/07/13 02:06:59;;;;;;;6.18;4.80;;;;;;;;;;5043278;28;20242;-63
2022/07/13 02:09:24;;;;;;;6.82;4.68;;;;;;;;;;5042397;28;20265;-63
2022/07/13 02:11:49;;;;;;;6.03;4.70;;;;;;;;;;5043406;28;20206;-63
2022/07/13 02:14:15;;;;;;;7.63;4.57;;;;;;;;;;5040825;28;20226;-64
2022/07/13 02:16:40;;;;;;;6.45;4.60;;;;;;;;;;5028469;28;20752;-63
2022/07/13 02:19:05;;;;;;;5.65;3.95;;;;;;;;;;5042221;28;20554;-64
2022/07/13 02:21:30;;;;;;;4.88;4.05;;;;;;;;;;5043379;28;20674;-64
2022/07/13 02:23:56;;;;;;;5.60;4.18;;;;;;;;;;5042472;28;20235;-63
2022/07/13 02:26:21;;;;;;;4.78;4.03;;;;;;;;;;5042532;28;20210;-64
2022/07/13 02:28:46;;;;;;;5.55;3.88;;;;;;;;;;5042821;28;20203;-63
2022/07/13 02:31:13;;;;;;;6.63;3.95;;;;;;;;;;5024383;28;20227;-63
2022/07/13 02:33:38;;;;;;;5.55;3.83;;;;;;;;;;5043056;28;20577;-63
2022/07/13 02:36:04;;;;;;;6.38;3.90;;;;;;;;;;5033614;28;20690;-63
2022/07/13 02:38:29;;;;;;;4.70;3.80;;;;;;;;;;5031007;28;20844;-63
2022/07/13 02:40:54;;;;;;;3.83;3.20;;;;;;;;;;5022625;28;20214;-63
2022/07/13 02:43:20;;;;;;;5.35;3.83;;;;;;;;;;5022619;28;20216;-63
2022/07/13 02:45:45;;;;;;;5.57;3.65;;;;;;;;;;5022298;28;20215;-63
2022/07/13 02:48:10;;;;;;;6.45;3.83;;;;;;;;;;5022176;28;20215;-63
2022/07/13 02:50:35;;;;;;;4.05;3.55;;;;;;;;;;5022291;28;20570;-64
2022/07/13 02:53:01;;;;;;;5.78;3.60;;;;;;;;;;5022097;28;20215;-64
2022/07/13 02:55:26;;;;;;;6.32;3.28;;;;;;;;;;5022367;28;20208;-63
2022/07/13 02:57:51;;;;;;;5.43;3.33;;;;;;;;;;5022130;28;20231;-63
2022/07/13 03:00:17;;;;;;;5.97;3.30;;;;;;;;;;5021850;28;20208;-63
2022/07/13 03:02:42;;;;;;;4.65;3.40;;;;;;;;;;5022562;28;21190;-63
2022/07/13 03:05:08;;;;;;;4.47;3.08;;;;;;;;;;5021026;28;20230;-63
2022/07/13 03:07:33;;;;;;;4.18;3.13;;;;;;;;;;5022701;28;20273;-63
2022/07/13 03:09:59;;;;;;;3.60;2.90;;;;;;;;;;5022816;28;20210;-63
2022/07/13 03:12:24;;;;;;;5.20;3.03;;;;;;;;;;5020791;28;20728;-63
2022/07/13 03:14:49;;;;;;;4.90;3.10;;;;;;;;;;5016151;28;20221;-63
2022/07/13 03:17:14;;;;;;;4.13;2.97;;;;;;;;;;5020223;28;20715;-64
2022/07/13 03:19:40;;;;;;;3.97;3.13;;;;;;;;;;5022340;28;20213;-64
2022/07/13 03:22:05;;;;;;;3.72;3.10;;;;;;;;;;5021765;28;20214;-64
2022/07/13 03:24:31;;;;;;;3.35;2.90;;;;;;;;;;5022888;28;20204;-64
2022/07/13 03:26:56;;;;;;;3.63;2.90;;;;;;;;;;5023348;28;20225;-63
2022/07/13 03:29:21;;;;;;;4.75;2.90;;;;;;;;;;5039167;28;20613;-63
2022/07/13 03:31:47;;;;;;;4.97;3.10;;;;;;;;;;5022835;28;20220;-63
2022/07/13 03:34:12;;;;;;;4.72;3.20;;;;;;;;;;5021281;28;20445;-64
2022/07/13 03:36:37;;;;;;;3.78;2.55;;;;;;;;;;5022374;28;20677;-63
2022/07/13 03:39:03;;;;;;;3.97;2.97;;;;;;;;;;5024460;28;20740;-63
2022/07/13 03:41:28;;;;;;;4.95;3.00;;;;;;;;;;5025880;28;20657;-64
2022/07/13 03:43:53;;;;;;;4.38;2.80;;;;;;;;;;5026518;28;20297;-64
2022/07/13 03:46:18;;;;;;;4.63;2.80;;;;;;;;;;5026193;28;20253;-64
2022/07/13 03:48:44;;;;;;;4.53;2.70;;;;;;;;;;5025834;28;20593;-64
2022/07/13 03:51:09;;;;;;;6.05;2.78;;;;;;;;;;5025919;28;20199;-64
2022/07/13 03:53:34;;;;;;;4.90;2.72;;;;;;;;;;5026160;28;20254;-63
2022/07/13 03:56:00;;;;;;;8.10;3.17;;;;;;;;;;5026190;28;20239;-64
2022/07/13 03:58:25;;;;;;;6.50;2.63;;;;;;;;;;5013844;28;20402;-63
2022/07/13 04:00:50;;;;;;;4.95;2.75;;;;;;;;;;5014795;28;20295;-64
2022/07/13 04:03:16;;;;;;;3.45;2.72;;;;;;;;;;5005236;28;20208;-64
2022/07/13 04:05:41;;;;;;;3.42;2.50;;;;;;;;;;5025290;28;20224;-64
2022/07/13 04:08:06;;;;;;;4.93;2.42;;;;;;;;;;5024468;28;20258;-64
2022/07/13 04:10:31;;;;;;;4.50;2.47;;;;;;;;;;5025778;28;20349;-64
2022/07/13 04:12:58;;;;;;;4.82;2.50;;;;;;;;;;5025943;28;20211;-63
2022/07/13 04:15:23;;;;;;;4.40;2.70;;;;;;;;;;5012807;28;20357;-63
2022/07/13 04:17:49;;;;;;;4.47;3.03;;;;;;;;;;5014411;28;20425;-63
2022/07/13 04:20:14;;;;;;;5.32;2.78;;;;;;;;;;5009312;28;20209;-64
2022/07/13 04:22:39;;;;;;;4.30;2.70;;;;;;;;;;5005380;28;20664;-63
2022/07/13 04:25:05;;;;;;;5.72;2.80;;;;;;;;;;5005976;28;20226;-63
2022/07/13 04:27:30;;;;;;;4.18;2.58;;;;;;;;;;5006547;28;20212;-63
2022/07/13 04:29:55;;;;;;;3.53;2.40;;;;;;;;;;5005591;28;20714;-63
2022/07/13 04:32:21;;;;;;;4.50;2.42;;;;;;;;;;5005420;28;20532;-62
2022/07/13 04:34:46;;;;;;;5.78;2.78;;;;;;;;;;5005791;28;20200;-62
2022/07/13 04:37:11;;;;;;;3.30;2.50;;;;;;;;;;5004942;28;20227;-63
2022/07/13 04:39:40;;;;;;;4.10;2.63;;;;;;;;;;5005832;28;20291;-63
2022/07/13 04:42:05;;;;;;;4.28;2.40;;;;;;;;;;4987912;28;20274;-63
2022/07/13 04:44:30;;;;;;;5.63;2.72;;;;;;;;;;5005318;28;20208;-63
2022/07/13 04:46:56;;;;;;;3.95;2.80;;;;;;;;;;5005577;28;20299;-63
2022/07/13 04:49:22;;;;;;;12.38;3.33;;;;;;;;;;5004679;28;20223;-63
2022/07/13 04:51:48;;;;;;;4.15;2.70;;;;;;;;;;5004307;28;20311;-64
2022/07/13 04:54:16;;;;;;;5.63;3.03;;;;;;;;;;5016612;28;20224;-64
2022/07/13 04:56:41;;;;;;;5.47;2.92;;;;;;;;;;5011586;28;20236;-63
2022/07/13 04:59:06;;;;;;;6.75;2.63;;;;;;;;;;5022883;28;20236;-64
2022/07/13 05:01:31;;;;;;;5.28;2.70;;;;;;;;;;5024269;28;20307;-63
2022/07/13 05:03:57;;;;;;;5.10;2.97;;;;;;;;;;5022714;28;20262;-64
2022/07/13 05:06:22;;;;;;;6.05;3.05;;;;;;;;;;5025206;28;20231;-65
2022/07/13 05:08:48;;;;;;;7.13;2.60;;;;;;;;;;5034933;28;20207;-63
2022/07/13 05:11:13;;;;;;;7.00;2.97;;;;;;;;;;5030078;28;20553;-64
2022/07/13 05:13:38;;;;;;;6.82;3.17;;;;;;;;;;5047035;28;20694;-65
2022/07/13 05:16:04;;;;;;;9.23;4.13;;;;;;;;;;5027143;28;20627;-64
2022/07/13 05:18:29;;;;;;;7.28;5.38;;;;;;;;;;5025629;28;20696;-64
2022/07/13 05:20:55;;;;;;;7.20;5.05;;;;;;;;;;5034279;28;20812;-64
2022/07/13 05:23:20;;;;;;;8.63;5.70;;;;;;;;;;5049546;28;20326;-65
2022/07/13 05:25:46;;;;;;;10.95;5.80;;;;;;;;;;5033716;28;20291;-64
2022/07/13 05:28:11;;;;;;;7.90;5.82;;;;;;;;;;5068265;28;20681;-65
2022/07/13 05:30:36;;;;;;;8.43;5.72;;;;;;;;;;5060519;28;20215;-64
2022/07/13 05:33:02;;;;;;;11.15;5.88;;;;;;;;;;5053344;28;20226;-65
2022/07/13 05:35:27;;;;;;;7.00;5.32;;;;;;;;;;5053946;28;20203;-65
2022/07/13 05:37:53;;;;;;;8.73;3.83;;;;;;;;;;5054111;28;20234;-64
2022/07/13 05:40:18;;;;;;;8.90;4.10;;;;;;;;;;5053108;28;20214;-64
2022/07/13 05:42:43;;;;;;;11.25;5.38;;;;;;;;;;5054019;28;20727;-64
2022/07/13 05:45:09;;;;;;;9.57;5.22;;;;;;;;;;5053342;28;20225;-65
2022/07/13 05:47:34;;;;;;;9.98;5.30;;;;;;;;;;5053426;28;20203;-65
2022/07/13 05:50:00;;;;;;;11.45;5.28;;;;;;;;;;5053808;28;20254;-64
2022/07/13 05:52:25;;;;;;;8.32;4.70;;;;;;;;;;5053452;28;20297;-65
2022/07/13 05:54:50;;;;;;;6.65;3.88;;;;;;;;;;5053161;28;20677;-64
2022/07/13 05:57:16;;;;;;;8.18;3.88;;;;;;;;;;5050942;28;20223;-65
2022/07/13 05:59:41;;;;;;;11.13;4.55;;;;;;;;;;5015788;28;20235;-64
2022/07/13 06:02:06;;;;;;;8.52;4.15;;;;;;;;;;5031750;28;20207;-65
2022/07/13 06:04:32;;;;;;;9.43;4.53;;;;;;;;;;5033470;28;20224;-65
2022/07/13 06:06:57;;;;;;;9.20;4.38;;;;;;;;;;5023117;28;20213;-65
2022/07/13 06:09:22;;;;;;;10.30;4.13;;;;;;;;;;5021301;28;20215;-64
2022/07/13 06:11:48;;;;;;;7.75;4.38;;;;;;;;;;5033218;28;20262;-65
2022/07/13 06:14:13;;;;;;;9.88;4.93;;;;;;;;;;5030766;28;20714;-65
2022/07/13 06:16:38;;;;;;;9.75;4.90;;;;;;;;;;5032572;28;20227;-64
2022/07/13 06:19:04;;;;;;;11.77;5.35;;;;;;;;;;5033054;28;20215;-65
2022/07/13 06:21:29;;;;;;;14.80;4.70;;;;;;;;;;5033068;28;20204;-64
2022/07/13 06:23:54;;;;;;;10.35;5.25;;;;;;;;;;5032661;28;20220;-64
2022/07/13 06:26:20;;;;;;;10.40;5.35;;;;;;;;;;5032863;28;20220;-65
2022/07/13 06:28:45;;;;;;;11.52;5.90;;;;;;;;;;5032177;28;20219;-64
2022/07/13 06:31:11;;;;;;;15.77;6.20;;;;;;;;;;5032329;28;20200;-64
2022/07/13 06:33:36;;;;;;;8.43;5.95;;;;;;;;;;5027219;28;21386;-64
2022/07/13 06:36:01;;;;;;;14.18;5.97;;;;;;;;;;5031255;28;20239;-65
2022/07/13 06:38:27;;;;;;;8.98;5.97;;;;;;;;;;5032845;28;20215;-65
2022/07/13 06:40:52;;;;;;;12.82;6.07;;;;;;;;;;5030731;28;20226;-65
2022/07/13 06:43:17;;;;;;;10.10;6.43;;;;;;;;;;5031825;28;20212;-66
2022/07/13 06:45:43;;;;;;;9.70;6.50;;;;;;;;;;5020667;28;20269;-63
2022/07/13 06:48:08;;;;;;;12.65;6.30;;;;;;;;;;5027628;28;20540;-63
2022/07/13 06:50:33;;;;;;;13.65;7.15;;;;;;;;;;5022413;28;20263;-64
2022/07/13 06:52:59;;;;;;;8.00;5.55;;;;;;;;;;5029798;28;20341;-64
2022/07/13 06:55:24;;;;;;;10.48;5.60;;;;;;;;;;5024380;28;20212;-63
2022/07/13 06:57:49;;;;;;;11.30;6.55;;;;;;;;;;5011360;28;20216;-64
2022/07/13 07:00:15;;;;;;;11.40;6.63;;;;;;;;;;5025712;28;20608;-65
2022/07/13 07:02:40;;;;;;;13.60;6.60;;;;;;;;;;5032279;28;20698;-64
2022/07/13 07:05:07;;;;;;;10.57;6.85;;;;;;;;;;5010593;28;20232;-64
2022/07/13 07:07:32;;;;;;;12.93;6.95;;;;;;;;;;5012968;28;20216;-64
2022/07/13 07:09:58;;;;;;;9.60;6.63;;;;;;;;;;4994196;28;20216;-64
2022/07/13 07:12:23;;;;;;;11.07;7.00;;;;;;;;;;4991824;28;20213;-64
2022/07/13 07:14:48;;;;;;;10.82;6.90;;;;;;;;;;4999420;28;20287;-64
2022/07/13 07:17:16;;;;;;;11.70;7.28;;;;;;;;;;5012283;28;20224;-65
2022/07/13 07:19:41;;;;;;;9.98;7.28;;;;;;;;;;5012231;28;20216;-64
2022/07/13 07:22:06;;;;;;;11.18;7.35;;;;;;;;;;5012482;28;20203;-65
2022/07/13 07:24:32;;;;;;;12.05;6.53;;;;;;;;;;5012913;28;20208;-64
2022/07/13 07:26:57;;;;;;;12.88;6.65;;;;;;;;;;5012000;28;20227;-64
2022/07/13 07:29:22;;;;;;;11.18;6.40;;;;;;;;;;5009295;28;20220;-64
2022/07/13 07:31:48;;;;;;;10.77;6.55;;;;;;;;;;4992983;28;20208;-64
2022/07/13 07:34:13;;;;;;;8.93;6.35;;;;;;;;;;4992399;28;20300;-64
2022/07/13 07:36:40;;;;;;;11.93;6.53;;;;;;;;;;4993142;28;20201;-64
2022/07/13 07:39:06;;;;;;;9.82;5.82;;;;;;;;;;4991902;28;20291;-64
2022/07/13 07:41:31;;;;;;;7.40;5.10;;;;;;;;;;4992977;28;20291;-64
2022/07/13 07:43:56;;;;;;;8.93;5.82;;;;;;;;;;4992868;28;20680;-64
2022/07/13 07:46:22;;;;;;;11.45;6.07;;;;;;;;;;4990283;28;20213;-64
2022/07/13 07:48:47;;;;;;;11.45;6.05;;;;;;;;;;4992792;28;20209;-64
2022/07/13 07:51:12;;;;;;;11.68;6.28;;;;;;;;;;4992550;28;20209;-64
2022/07/13 07:53:38;;;;;;;9.52;6.00;;;;;;;;;;4992170;28;20205;-64
2022/07/13 07:56:03;;;;;;;9.48;5.28;;;;;;;;;;4992645;28;20213;-64
2022/07/13 07:58:28;;;;;;;12.52;5.25;;;;;;;;;;4992472;28;20225;-64
2022/07/13 08:00:54;;;;;;;7.63;4.03;;;;;;;;;;5011997;28;20216;-64
2022/07/13 08:03:19;;;;;;;14.52;4.65;;;;;;;;;;5012025;28;20308;-64
2022/07/13 08:05:48;;;;;;;8.88;3.97;;;;;;;;;;5027753;28;20619;-64
2022/07/13 08:08:13;;;;;;;6.97;4.10;;;;;;;;;;5030834;28;20208;-65
2022/07/13 08:10:38;;;;;;;7.43;3.47;;;;;;;;;;5031812;28;20208;-64
2022/07/13 08:13:04;;;;;;;7.70;3.70;;;;;;;;;;5031378;28;20215;-64
2022/07/13 08:15:31;;;;;;;8.10;3.35;;;;;;;;;;5031414;28;20255;-65
2022/07/13 08:17:57;;;;;;;6.60;3.30;;;;;;;;;;5031904;28;20301;-64
2022/07/13 08:20:22;;;;;;;5.20;2.95;;;;;;;;;;5031665;28;20239;-64
2022/07/13 08:22:47;;;;;;;6.63;3.28;;;;;;;;;;5031211;28;20208;-64
2022/07/13 08:25:13;;;;;;;6.78;3.40;;;;;;;;;;5033180;28;20214;-64
2022/07/13 08:27:38;;;;;;;8.65;3.53;;;;;;;;;;5035601;28;20212;-64
2022/07/13 08:30:03;;;;;;;9.05;3.47;;;;;;;;;;5033963;28;20208;-64
2022/07/13 08:32:29;;;;;;;6.88;3.05;;;;;;;;;;5035673;28;20211;-64
2022/07/13 08:40:21;;;;;;;5.10;3.20;;;;;;;;;;5054759;28;20209;-64
2022/07/13 08:42:47;;;;;;;4.93;3.20;;;;;;;;;;5054296;28;20211;-64
2022/07/13 08:45:12;;;;;;;6.00;2.97;;;;;;;;;;5054871;28;20261;-65
2022/07/13 08:47:38;;;;;;;8.43;3.67;;;;;;;;;;5054970;28;20253;-64
2022/07/13 08:50:04;;;;;;;5.60;3.08;;;;;;;;;;5035982;28;20211;-64
2022/07/13 08:52:29;;;;;;;6.50;3.35;;;;;;;;;;5055002;28;20211;-64
2022/07/13 08:54:55;;;;;;;11.57;3.42;;;;;;;;;;5037211;28;20622;-64
2022/07/13 08:57:20;;;;;;;5.88;3.13;;;;;;;;;;5053768;28;20235;-64
2022/07/13 08:59:46;;;;;;;7.82;3.45;;;;;;;;;;5054346;28;20211;-63
2022/07/13 09:02:11;;;;;;;8.98;3.97;;;;;;;;;;5036742;28;20208;-65
2022/07/13 09:04:36;;;;;;;6.97;3.67;;;;;;;;;;5053786;28;20223;-64
2022/07/13 09:07:01;;;;;;;8.05;3.53;;;;;;;;;;5054435;28;20227;-64
2022/07/13 09:09:28;;;;;;;9.07;3.72;;;;;;;;;;5034022;28;20216;-64
2022/07/13 09:12:08;;;;;;;6.40;3.70;;;;;;;;;;5014406;28;20217;-64
2022/07/13 09:14:33;;;;;;;6.57;3.45;;;;;;;;;;5039412;28;20226;-64
2022/07/13 09:16:58;;;;;;;4.95;3.50;;;;;;;;;;5054672;28;20681;-64
2022/07/13 09:19:24;;;;;;;7.82;3.65;;;;;;;;;;5053188;28;20206;-64
2022/07/13 09:21:49;;;;;;;6.80;3.10;;;;;;;;;;5036673;28;20214;-64
2022/07/13 09:24:14;;;;;;;5.43;3.42;;;;;;;;;;5053990;28;20209;-64
2022/07/13 09:26:40;;;;;;;9.63;3.35;;;;;;;;;;5053755;28;20215;-64
2022/07/13 09:29:05;;;;;;;9.60;3.70;;;;;;;;;;5053708;28;20211;-65
2022/07/13 09:31:31;;;;;;;4.65;3.33;;;;;;;;;;5053654;28;20203;-64
2022/07/13 09:33:56;;;;;;;7.30;3.40;;;;;;;;;;5054352;28;20212;-64
2022/07/13 09:36:22;;;;;;;5.82;3.35;;;;;;;;;;5052824;28;20242;-64
2022/07/13 09:38:51;;;;;;;8.13;4.03;;;;;;;;;;5053327;28;20314;-64
2022/07/13 09:41:17;;;;;;;7.43;3.30;;;;;;;;;;5053470;28;20288;-64
2022/07/13 09:46:54;;;;;;;7.38;3.08;;;;;;;;;;5053133;28;20248;-65
2022/07/13 09:49:31;;;;;;;4.63;2.53;;;;;;;;;;5053776;28;20222;-64
2022/07/13 09:51:57;;;;;;;7.43;2.63;;;;;;;;;;5053833;28;20210;-64
2022/07/13 09:54:22;;;;;;;6.82;3.25;;;;;;;;;;5052860;28;20214;-64
2022/07/13 09:56:49;;;;;;;6.70;3.15;;;;;;;;;;5035784;28;20215;-64
2022/07/13 09:59:15;;;;;;;6.03;2.70;;;;;;;;;;5035600;28;20305;-64
2022/07/13 10:01:41;;;;;;;7.25;3.33;;;;;;;;;;5053040;28;20215;-64
2022/07/13 10:04:08;;;;;;;5.32;2.92;;;;;;;;;;5052917;28;20750;-65
2022/07/13 10:06:33;;;;;;;5.15;3.00;;;;;;;;;;5053459;28;20674;-64
2022/07/13 10:08:58;;;;;;;6.07;3.13;;;;;;;;;;5052612;28;20207;-64
2022/07/13 10:11:24;;;;;;;6.82;3.08;;;;;;;;;;5052907;28;20203;-64
2022/07/13 10:13:51;;;;;;;7.30;3.40;;;;;;;;;;5052940;28;20281;-64
2022/07/13 10:16:16;;;;;;;5.70;3.08;;;;;;;;;;5035152;28;20234;-64
2022/07/13 10:18:41;;;;;;;6.22;3.08;;;;;;;;;;5053587;28;20690;-64
2022/07/13 10:21:07;;;;;;;6.22;3.25;;;;;;;;;;5034127;28;20253;-65
2022/07/13 10:23:33;;;;;;;7.65;3.15;;;;;;;;;;5053435;28;20264;-64
2022/07/13 10:25:58;;;;;;;6.22;3.30;;;;;;;;;;5053513;28;20231;-64
2022/07/13 10:28:23;;;;;;;6.13;3.30;;;;;;;;;;5052033;28;20241;-64
2022/07/13 10:30:49;;;;;;;9.77;3.38;;;;;;;;;;5052902;28;20215;-64
2022/07/13 10:33:25;;;;;;;10.77;3.50;;;;;;;;;;5052889;28;20219;-63
2022/07/13 10:35:51;;;;;;;4.70;3.40;;;;;;;;;;5052452;28;20298;-64
2022/07/13 10:38:18;;;;;;;6.47;3.25;;;;;;;;;;5052794;28;20219;-63
2022/07/13 10:40:44;;;;;;;6.07;3.30;;;;;;;;;;5052768;28;20214;-64
2022/07/13 10:43:09;;;;;;;5.15;3.42;;;;;;;;;;5051727;28;20688;-65
2022/07/13 10:45:42;;;;;;;6.72;3.72;;;;;;;;;;5053105;28;20234;-64
2022/07/13 10:48:16;;;;;;;9.23;3.90;;;;;;;;;;5052470;28;20674;-64
2022/07/13 10:50:48;;;;;;;6.15;3.50;;;;;;;;;;5051987;28;20214;-63
2022/07/13 10:53:16;;;;;;;7.22;2.95;;;;;;;;;;5052096;28;20211;-64
2022/07/13 10:55:49;;;;;;;9.38;3.03;;;;;;;;;;5052943;28;20215;-64
2022/07/13 10:58:33;;;;;;;7.82;3.50;;;;;;;;;;5033682;28;20219;-64
2022/07/13 11:00:59;;;;;;;6.55;3.13;;;;;;;;;;5052707;28;20210;-63
2022/07/13 11:03:27;;;;;;;7.13;3.10;;;;;;;;;;5051719;28;20203;-63
2022/07/13 11:06:08;;;;;;;7.70;3.17;;;;;;;;;;5052440;28;20571;-63
2022/07/13 11:08:34;;;;;;;5.28;3.25;;;;;;;;;;5034422;28;20298;-64
2022/07/13 11:11:11;;;;;;;8.50;3.70;;;;;;;;;;5051733;28;20227;-64
2022/07/13 11:13:36;;;;;;;7.25;3.53;;;;;;;;;;5052313;28;20744;-64
2022/07/13 11:16:02;;;;;;;7.00;2.88;;;;;;;;;;5051908;28;20286;-64
2022/07/13 11:18:29;;;;;;;6.63;3.03;;;;;;;;;;5051826;28;20233;-63
2022/07/13 11:20:56;;;;;;;9.38;2.33;;;;;;;;;;5052256;28;20705;-63
2022/07/13 11:26:11;;;;;;;8.88;2.80;;;;;;;;;;5051064;28;20310;-64
2022/07/13 11:28:36;;;;;;;5.50;2.53;;;;;;;;;;5034531;28;20261;-63
2022/07/13 11:31:02;;;;;;;7.15;2.70;;;;;;;;;;5051343;28;20211;-64
2022/07/13 11:33:27;;;;;;;9.45;2.97;;;;;;;;;;5052378;28;20211;-64
2022/07/13 11:35:53;;;;;;;10.43;3.15;;;;;;;;;;5052015;28;20633;-63
2022/07/13 11:38:20;;;;;;;7.85;2.50;;;;;;;;;;5050872;28;20222;-64
2022/07/13 11:40:46;;;;;;;4.30;2.10;;;;;;;;;;5052011;28;20870;-64
2022/07/13 11:43:12;;;;;;;4.95;2.60;;;;;;;;;;5051788;28;20305;-64
2022/07/13 11:45:38;;;;;;;8.05;2.38;;;;;;;;;;5051430;28;20294;-64
2022/07/13 11:48:04;;;;;;;3.92;2.33;;;;;;;;;;5051892;28;20207;-64
2022/07/13 11:50:39;;;;;;;3.67;1.80;;;;;;;;;;5052088;28;20559;-64
2022/07/13 11:53:04;;;;;;;3.33;1.50;;;;;;;;;;5033246;28;20203;-64
2022/07/13 11:55:30;;;;;;;5.28;1.60;;;;;;;;;;5034465;28;20272;-64
2022/07/13 11:57:58;;;;;;;4.50;1.60;;;;;;;;;;5034330;28;20219;-64
2022/07/13 12:00:23;;;;;;;5.68;1.40;;;;;;;;;;5053143;28;20206;-64
2022/07/13 12:02:50;;;;;;;4.40;1.58;;;;;;;;;;5056112;28;20214;-64
2022/07/13 12:05:21;;;;;;;3.72;1.02;;;;;;;;;;5055332;28;20779;-64
2022/07/13 12:07:59;;;;;;;4.07;1.23;;;;;;;;;;5055080;28;20215;-63
2022/07/13 12:10:24;;;;;;;5.68;1.25;;;;;;;;;;5055169;28;20206;-63
2022/07/13 12:12:49;;;;;;;3.03;1.30;;;;;;;;;;5056211;28;20207;-63
2022/07/13 12:15:15;;;;;;;3.72;1.25;;;;;;;;;;5036840;28;20218;-64
2022/07/13 12:17:41;;;;;;;4.82;1.30;;;;;;;;;;5055721;28;20223;-64
2022/07/13 12:20:17;;;;;;;6.57;1.40;;;;;;;;;;5055007;28;20737;-65
2022/07/13 12:22:50;;;;;;;3.17;1.13;;;;;;;;;;5055594;28;20235;-64
2022/07/13 12:25:22;;;;;;;4.95;1.30;;;;;;;;;;5054876;28;20593;-64
2022/07/13 12:27:50;;;;;;;4.13;1.20;;;;;;;;;;5054969;28;20290;-63
2022/07/13 12:30:15;;;;;;;6.55;1.50;;;;;;;;;;5054739;28;20207;-64
2022/07/13 12:32:57;;;;;;;3.60;1.40;;;;;;;;;;5055585;28;20219;-63
2022/07/13 12:35:25;;;;;;;2.75;1.75;;;;;;;;;;5053779;28;20217;-63
2022/07/13 12:37:52;;;;;;;4.35;1.50;;;;;;;;;;5055317;28;20693;-63
2022/07/13 12:40:42;;;;;;;4.53;1.85;;;;;;;;;;5054570;28;20242;-62
2022/07/13 12:43:17;;;;;;;3.42;1.20;;;;;;;;;;5041500;28;20215;-63
2022/07/13 12:45:46;;;;;;;5.18;1.50;;;;;;;;;;5057054;28;20705;-62
2022/07/13 12:48:12;;;;;;;6.25;1.52;;;;;;;;;;5054633;28;20305;-62
2022/07/13 12:50:38;;;;;;;4.22;1.98;;;;;;;;;;5054225;28;20207;-62
2022/07/13 12:53:03;;;;;;;3.33;1.50;;;;;;;;;;5054858;28;20552;-62
2022/07/13 12:55:29;;;;;;;3.67;1.65;;;;;;;;;;5053931;28;20211;-61
2022/07/13 12:57:54;;;;;;;5.03;1.40;;;;;;;;;;5036930;28;20253;-62
2022/07/13 13:00:25;;;;;;;4.45;1.40;;;;;;;;;;5054197;28;20215;-61
2022/07/13 13:02:51;;;;;;;4.93;1.60;;;;;;;;;;5054360;28;20701;-62
2022/07/13 13:05:16;;;;;;;2.92;1.52;;;;;;;;;;5054425;28;20234;-62
2022/07/13 13:07:42;;;;;;;4.30;1.30;;;;;;;;;;5055096;28;20211;-62
2022/07/13 13:10:07;;;;;;;3.55;1.58;;;;;;;;;;5053177;28;20203;-62
2022/07/13 13:12:33;;;;;;;4.22;1.38;;;;;;;;;;5053442;28;20229;-62
2022/07/13 13:14:59;;;;;;;3.90;1.50;;;;;;;;;;5054545;28;20207;-62
2022/07/13 13:17:25;;;;;;;6.30;1.60;;;;;;;;;;5053618;28;20230;-62
2022/07/13 13:19:50;;;;;;;4.70;1.45;;;;;;;;;;5054566;28;20211;-62
2022/07/13 13:22:15;;;;;;;3.92;1.45;;;;;;;;;;5054306;28;20223;-62
2022/07/13 13:24:41;;;;;;;2.95;1.10;;;;;;;;;;5053708;28;20257;-62
2022/07/13 13:27:06;;;;;;;4.43;1.30;;;;;;;;;;5053695;28;20219;-63
2022/07/13 13:32:16;;;;;;;5.60;1.48;;;;;;;;;;5046488;28;20381;-62
2022/07/13 13:34:41;;;;;;;5.07;1.45;;;;;;;;;;5031421;28;20691;-62
2022/07/13 13:37:07;;;;;;;1.20;0.90;;;;;;;;;;5022119;28;20555;-62
2022/07/13 13:39:32;;;;;;;2.00;1.20;;;;;;;;;;5022279;28;20212;-63
2022/07/13 13:41:57;;;;;;;4.00;1.10;;;;;;;;;;5039319;28;20218;-62
2022/07/13 13:44:22;;;;;;;2.60;1.30;;;;;;;;;;5032618;28;20224;-61
2022/07/13 13:46:48;;;;;;;2.85;1.30;;;;;;;;;;5027289;28;20734;-60
2022/07/13 13:49:13;;;;;;;3.63;1.58;;;;;;;;;;5030206;28;20215;-61
2022/07/13 13:51:39;;;;;;;4.25;1.23;;;;;;;;;;5029536;28;20215;-61
2022/07/13 13:54:04;;;;;;;4.68;1.50;;;;;;;;;;5027664;28;20212;-61
2022/07/13 13:56:29;;;;;;;3.05;1.40;;;;;;;;;;5021535;28;20648;-61
2022/07/13 13:58:54;;;;;;;6.10;1.52;;;;;;;;;;5019228;28;20208;-61
2022/07/13 14:01:20;;;;;;;3.50;1.30;;;;;;;;;;5019707;28;20686;-61
2022/07/13 14:03:47;;;;;;;3.53;1.30;;;;;;;;;;5027887;28;20215;-61
2022/07/13 14:06:12;;;;;;;2.53;1.20;;;;;;;;;;5028720;28;20228;-61
2022/07/13 14:08:38;;;;;;;4.43;1.15;;;;;;;;;;5029872;28;20208;-63
2022/07/13 14:11:03;;;;;;;4.50;1.13;;;;;;;;;;5027579;28;20577;-62
2022/07/13 14:13:28;;;;;;;2.92;1.10;;;;;;;;;;5027639;28;20570;-62
2022/07/13 14:15:54;;;;;;;3.38;1.20;;;;;;;;;;5028131;28;20208;-63
2022/07/13 14:18:26;;;;;;;4.30;1.33;;;;;;;;;;5023221;28;20239;-62
2022/07/13 14:20:52;;;;;;;3.35;1.30;;;;;;;;;;5020030;28;20887;-62
2022/07/13 14:23:18;;;;;;;2.85;1.55;;;;;;;;;;5019591;28;20220;-62
2022/07/13 14:25:44;;;;;;;2.65;1.40;;;;;;;;;;5024770;28;20218;-62
2022/07/13 14:28:09;;;;;;;3.95;1.33;;;;;;;;;;5045327;28;20257;-63
2022/07/13 14:30:34;;;;;;;4.40;1.23;;;;;;;;;;5029766;28;20306;-62
2022/07/13 14:33:00;;;;;;;3.40;1.23;;;;;;;;;;5027802;28;20208;-62
2022/07/13 14:35:25;;;;;;;6.53;1.40;;;;;;;;;;5027871;28;20224;-62
2022/07/13 14:37:51;;;;;;;4.13;1.20;;;;;;;;;;5027862;28;20216;-62
2022/07/13 14:40:16;;;;;;;3.65;1.40;;;;;;;;;;5025551;28;20332;-62
2022/07/13 14:42:42;;;;;;;3.25;1.23;;;;;;;;;;5019553;28;20210;-61
2022/07/13 14:45:07;;;;;;;4.68;1.20;;;;;;;;;;5024174;28;20790;-62
2022/07/13 14:47:33;;;;;;;5.47;1.30;;;;;;;;;;5039748;28;20207;-63